ADDS METAR Data INFO
IDs: Format: Raw Decoded Include TAF

Data at: 0856 UTC 19 Jun 2018

KANB 190853Z AUTO 24004KT 10SM CLR 22/21 A3008 RMK AO2 SLP175 T02170206 55000
KANB 190753Z AUTO 00000KT 10SM CLR 22/21 A3008 RMK AO2 SLP174 T02220211
KANB 190653Z AUTO 00000KT 10SM CLR 22/21 A3008 RMK AO2 SLP175 T02220211
KANB 190553Z AUTO 00000KT 10SM CLR 23/21 A3008 RMK AO2 SLP175 T02330211 10300 20228 403390200 58004
KANB 190453Z AUTO 00000KT 10SM CLR 23/22 A3009 RMK AO2 SLP177 T02330217
KANB 190353Z AUTO 26003KT 10SM CLR 24/22 A3009 RMK AO2 SLP180 T02390222
KANB 190253Z AUTO 24003KT 10SM CLR 24/22 A3009 RMK AO2 SLP180 T02440222 53006
KANB 190153Z AUTO 23003KT 10SM CLR 26/23 A3008 RMK AO2 SLP177 T02560228
KANB 190053Z AUTO 25004KT 10SM CLR 27/23 A3008 RMK AO2 SLP177 T02720228
KANB 182353Z AUTO 22004KT 10SM CLR 30/22 A3008 RMK AO2 SLP176 T03000222 10339 20289 55004
KANB 182253Z AUTO VRB03KT 10SM CLR 31/22 A3007 RMK AO2 SLP174 T03060217
KANB 182153Z AUTO 25007KT 10SM FEW055 29/21 A3009 RMK AO2 SLP179 T02890211
KANB 182053Z AUTO VRB03KT 10SM CLR 33/19 A3009 RMK AO2 SLP179 T03280194 58022
KANB 181953Z AUTO 07005KT 10SM CLR 32/21 A3011 RMK AO2 SLP185 T03220206
KANB 181853Z AUTO 00000KT 10SM SCT044 32/21 A3013 RMK AO2 SLP194 T03170211
KANB 181753Z AUTO VRB05KT 10SM SCT036 31/22 A3015 RMK AO2 SLP202 T03060217 10311 20200 58014
KANB 181653Z AUTO 34006KT 10SM FEW033 31/22 A3017 RMK AO2 SLP207 T03060217
KANB 181553Z AUTO 36008KT 10SM FEW030 29/22 A3019 RMK AO2 SLP213 T02940217
KANB 181453Z AUTO VRB03KT 10SM CLR 27/22 A3019 RMK AO2 SLP216 T02720222 50005
KANB 181353Z AUTO 24004KT 10SM CLR 24/21 A3020 RMK AO2 SLP217 T02440211
KANB 181253Z AUTO 00000KT 10SM FEW003 21/21 A3019 RMK AO2 SLP218 T02110206
KANB 181223Z AUTO 00000KT 8SM OVC003 21/21 A3018 RMK AO2 T02060206
KANB 181203Z AUTO 05003KT 4SM BR OVC002 21/20 A3018 RMK AO2 T02060200
KANB 181153Z AUTO 00000KT 2SM BR OVC002 21/20 A3018 RMK AO2 SLP213 70061 T02060200 10206 20200 53006
KANB 181142Z AUTO 11003KT 1SM BR OVC002 20/20 A3018 RMK AO2 T02000200
KANB 181053Z AUTO 00000KT 1/4SM FG VV002 20/19 A3017 RMK AO2 SLP209 T02000194
KANB 180953Z AUTO 00000KT 1/4SM FG VV002 20/19 A3016 RMK AO2 SLP205 T02000194
KANB 180948Z AUTO 04003KT 1/4SM FG VV002 20/19 A3016 RMK AO2
KANB 180941Z AUTO 04003KT 3/4SM BR VV002 20/19 A3015 RMK AO2 T02000194
KANB 180853Z AUTO 03003KT 1 3/4SM BR OVC002 20/19 A3014 RMK AO2 SLP197 T02000194 53004
KANB 180848Z AUTO 02003KT 1 3/4SM BR OVC002 20/19 A3014 RMK AO2
KANB 180841Z AUTO 02004KT 3/4SM BR OVC002 20/19 A3014 RMK AO2 T02000194
KANB 180831Z AUTO 04004KT 1 1/2SM BR OVC002 20/19 A3014 RMK AO2 VIS 1/2V5 T02000194
KANB 180804Z AUTO 00000KT 8SM BKN002 20/19 A3013 RMK AO2 T02000194
KANB 180753Z AUTO 07005KT 5SM BR OVC003 20/19 A3013 RMK AO2 SLP193 T02000194
KANB 180749Z AUTO 05004KT 8SM BKN003 21/19 A3013 RMK AO2
KANB 180736Z AUTO 06003KT 7SM OVC002 21/19 A3013 RMK AO2 T02060194
KANB 180728Z AUTO 00000KT 2 1/2SM BR OVC002 21/19 A3013 RMK AO2 VIS 1 1/2V5 T02060194
KANB 180653Z AUTO 00000KT 6SM BR OVC002 21/19 A3013 RMK AO2 SLP194 T02060194
KANB 180626Z AUTO 06004KT 7SM OVC002 21/19 A3013 RMK AO2 T02060194
KANB 180603Z AUTO 00000KT 10SM BKN003 20/19 A3014 RMK AO2 T02000194
KANB 180553Z AUTO 00000KT 9SM SCT003 20/19 A3014 RMK AO2 SLP196 60059 T02000194 10233 20200 403220200 58008
KANB 180502Z AUTO 07003KT 10SM FEW003 21/20 A3014 RMK AO2 T02110200
KANB 180453Z AUTO 05003KT 10SM CLR 21/20 A3015 RMK AO2 SLP200 T02060200
KANB 180353Z AUTO 00000KT 10SM CLR 21/20 A3016 RMK AO2 SLP204 T02110200
KANB 180253Z AUTO 00000KT 10SM CLR 21/20 A3016 RMK AO2 SLP206 60059 T02110200 53007
KANB 180153Z AUTO 25003KT 10SM CLR 22/20 A3015 RMK AO2 RAE18 SLP201 P0002 T02170200
KANB 180129Z AUTO 18003KT 10SM SCT110 22/21 A3015 RMK AO2 RAE18 P0002 T02170206
KANB 180053Z AUTO 23009KT 3SM VCTS -RA BR BKN038 BKN070 OVC100 22/21 A3015 RMK AO2 LTG DSNT N AND NE AND SW RAB13 TSE14 SLP201 P0057 T02170206
KANB 180045Z AUTO VRB03KT 1 1/4SM VCTS RA BR OVC040 22/21 A3015 RMK AO2 LTG DSNT ALQDS RAB13 TSE14 P0055 T02220206
KANB 180029Z AUTO 04005KT 3/4SM VCTS +RA BR BKN033 OVC047 22/20 A3018 RMK AO2 LTG DSNT W-N RAB13 TSE14 P0038 T02170200
KANB 180020Z AUTO 01009G20KT 2 1/2SM VCTS +RA BR FEW034 BKN041 OVC070 22/20 A3019 RMK AO2 LTG DSNT W-NE RAB13 TSE14 P0009 T02220200
KANB 172353Z AUTO 05004KT 10SM TS FEW040 SCT080 OVC100 23/19 A3014 RMK AO2 PK WND 05028/2326 LTG DSNT NW-E RAB18E53 SLP200 P0002 60002 T02330194 10322 20222 53017
KANB 172253Z AUTO 23008KT 10SM TS CLR 28/23 A3010 RMK AO2 LTG DSNT N AND NE TSB51 SLP182 T02780228
KANB 172250Z AUTO 23010KT 10SM VCTS FEW002 28/23 A3009 RMK AO2 LTG DSNT N AND NE
KANB 172240Z AUTO 23008KT 10SM VCTS CLR 28/23 A3010 RMK AO2 LTG DSNT N AND NE T02830228
KANB 172153Z AUTO 23008KT 10SM CLR 29/24 A3009 RMK AO2 LTG DSNT N AND NE SLP181 T02940239